createdAt,value
2018-08-19T00:02:13.190Z,5.60
2018-08-19T00:04:42.136Z,5.40
2018-08-19T00:07:11.348Z,5.60
2018-08-19T00:09:40.279Z,5.60
2018-08-19T00:12:09.312Z,5.80
2018-08-19T00:14:38.373Z,5.40
2018-08-19T00:17:07.280Z,5.70
2018-08-19T00:19:36.445Z,5.77
2018-08-19T00:22:05.468Z,5.37
2018-08-19T00:24:34.479Z,5.23
2018-08-19T00:27:03.388Z,5.70
2018-08-19T00:29:37.218Z,5.17
2018-08-19T00:32:06.892Z,5.70
2018-08-19T00:34:36.161Z,5.70
2018-08-19T00:37:06.480Z,6.57
2018-08-19T00:39:35.753Z,5.73
2018-08-19T00:42:05.189Z,5.43
2018-08-19T00:44:34.688Z,5.30
2018-08-19T00:47:03.797Z,5.70
2018-08-19T00:49:32.732Z,5.93
2018-08-19T00:52:02.959Z,6.50
2018-08-19T00:54:32.636Z,5.40
2018-08-19T00:57:01.889Z,5.80
2018-08-19T00:59:32.078Z,5.90
2018-08-19T01:02:01.148Z,6.33
2018-08-19T01:04:30.073Z,5.97
2018-08-19T01:06:59.993Z,5.00
2018-08-19T01:09:31.413Z,5.83
2018-08-19T01:12:00.495Z,6.00
2018-08-19T01:14:29.445Z,5.93
2018-08-19T01:16:58.376Z,6.20
2018-08-19T01:19:27.307Z,5.90
2018-08-19T01:21:56.218Z,6.83
2018-08-19T01:24:25.184Z,6.30
2018-08-19T01:26:54.053Z,6.53
2018-08-19T01:29:34.776Z,6.23
2018-08-19T01:32:09.430Z,7.17
2018-08-19T01:34:38.421Z,7.00
2018-08-19T01:37:07.307Z,7.27
2018-08-19T01:39:38.141Z,8.20
2018-08-19T01:42:07.563Z,7.57
2018-08-19T01:44:36.416Z,8.30
2018-08-19T01:47:05.621Z,7.83
2018-08-19T01:49:34.521Z,8.60
2018-08-19T01:52:03.363Z,7.93
2018-08-19T01:54:32.392Z,7.77
2018-08-19T01:57:02.356Z,7.53
2018-08-19T01:59:33.280Z,8.20
2018-08-19T02:02:04.687Z,7.63
2018-08-19T02:04:35.504Z,8.77
2018-08-19T02:07:04.709Z,8.90
2018-08-19T02:09:33.620Z,8.47
2018-08-19T02:12:02.507Z,9.03
2018-08-19T02:14:31.343Z,8.40
2018-08-19T02:17:00.227Z,7.93
2018-08-19T02:19:29.097Z,8.33
2018-08-19T02:21:57.992Z,7.80
2018-08-19T02:24:26.914Z,8.50
2018-08-19T02:26:55.846Z,8.17
2018-08-19T02:29:34.644Z,8.77
2018-08-19T02:32:04.739Z,8.63
2018-08-19T02:34:34.863Z,8.53
2018-08-19T02:37:18.840Z,8.47
2018-08-19T02:39:49.104Z,8.60
2018-08-19T02:42:25.703Z,9.27
2018-08-19T02:45:00.608Z,8.37
2018-08-19T02:47:29.755Z,8.10
2018-08-19T02:49:58.712Z,8.40
2018-08-19T02:52:28.440Z,9.13
2018-08-19T02:54:58.869Z,7.77
2018-08-19T02:57:28.636Z,8.13
2018-08-19T02:59:58.152Z,8.70
2018-08-19T03:02:31.444Z,9.00
2018-08-19T03:05:01.784Z,8.37
2018-08-19T03:07:31.404Z,8.87
2018-08-19T03:10:05.692Z,7.90
2018-08-19T03:12:34.635Z,8.50
2018-08-19T03:15:03.612Z,8.00
2018-08-19T03:17:33.064Z,8.70
2018-08-19T03:20:02.113Z,8.70
2018-08-19T03:22:31.484Z,8.47
2018-08-19T03:25:01.128Z,8.10
2018-08-19T03:27:30.027Z,7.80
2018-08-19T03:30:00.226Z,8.37
2018-08-19T03:32:29.152Z,8.33
2018-08-19T03:35:05.439Z,7.70
2018-08-19T03:37:34.831Z,7.93
2018-08-19T03:40:03.882Z,7.50
2018-08-19T03:42:32.753Z,7.57
2018-08-19T03:45:07.203Z,7.47
2018-08-19T03:47:36.168Z,7.17
2018-08-19T03:50:10.352Z,7.27
2018-08-19T03:52:39.363Z,7.47
2018-08-19T03:55:12.519Z,7.67
2018-08-19T03:57:41.419Z,6.63
2018-08-19T04:00:10.884Z,7.13
2018-08-19T04:02:39.830Z,6.93
2018-08-19T04:05:08.728Z,6.40
2018-08-19T04:07:37.700Z,6.77
2018-08-19T04:10:06.652Z,7.00
2018-08-19T04:12:35.575Z,7.67
2018-08-19T04:15:05.692Z,6.30
2018-08-19T04:17:34.658Z,9.50
2018-08-19T04:20:03.640Z,7.33
2018-08-19T04:22:32.667Z,7.50
2018-08-19T04:25:01.513Z,6.53
2018-08-19T04:27:30.436Z,6.60
2018-08-19T04:30:00.329Z,7.10
2018-08-19T04:32:31.561Z,6.57
2018-08-19T04:35:01.414Z,7.10
2018-08-19T04:37:30.432Z,6.63
2018-08-19T04:40:00.454Z,6.77
2018-08-19T04:42:29.375Z,6.50
2018-08-19T04:44:58.260Z,6.70
2018-08-19T04:47:31.198Z,7.30
2018-08-19T04:50:00.313Z,6.73
2018-08-19T04:52:29.112Z,7.37
2018-08-19T04:54:58.053Z,6.53
2018-08-19T04:57:26.913Z,6.30
2018-08-19T04:59:55.715Z,5.73
2018-08-19T05:02:24.747Z,5.90
2018-08-19T05:04:53.722Z,5.67
2018-08-19T05:07:22.645Z,5.87
2018-08-19T05:09:51.545Z,5.63
2018-08-19T05:12:20.515Z,6.43
2018-08-19T05:14:49.419Z,6.23
2018-08-19T05:17:18.275Z,6.20
2018-08-19T05:19:47.128Z,7.33
2018-08-19T05:22:16.073Z,5.83
2018-08-19T05:24:46.460Z,6.70
2018-08-19T05:27:16.721Z,6.17
2018-08-19T05:29:45.623Z,6.03
2018-08-19T05:32:15.308Z,6.47
2018-08-19T05:34:44.232Z,6.53
2018-08-19T05:37:13.190Z,6.10
2018-08-19T05:39:51.243Z,6.30
2018-08-19T05:42:20.164Z,6.43
2018-08-19T05:44:49.005Z,6.47
2018-08-19T05:47:18.146Z,6.47
2018-08-19T05:49:47.963Z,6.40
2018-08-19T05:52:18.280Z,6.00
2018-08-19T05:54:52.821Z,7.10
2018-08-19T05:57:21.785Z,6.20
2018-08-19T05:59:51.792Z,6.40
2018-08-19T06:02:54.640Z,6.77
2018-08-19T06:05:23.604Z,6.90
2018-08-19T06:08:02.019Z,6.80
2018-08-19T06:10:31.013Z,7.13
2018-08-19T06:12:59.860Z,7.20
2018-08-19T06:15:28.983Z,6.70
2018-08-19T06:17:57.863Z,6.93
2018-08-19T06:20:29.419Z,7.30
2018-08-19T06:22:58.320Z,10.13
2018-08-19T06:25:27.236Z,7.10
2018-08-19T06:27:57.279Z,7.03
2018-08-19T06:30:26.308Z,7.07
2018-08-19T06:32:55.188Z,6.50
2018-08-19T06:35:24.064Z,7.30
2018-08-19T06:37:52.953Z,6.87
2018-08-19T06:40:23.056Z,7.07
2018-08-19T06:42:52.001Z,7.57
2018-08-19T06:45:20.968Z,7.07
2018-08-19T06:47:49.865Z,9.47
2018-08-19T06:50:27.713Z,7.53
2018-08-19T06:52:57.032Z,7.97
2018-08-19T06:55:26.204Z,7.10
2018-08-19T06:57:57.173Z,8.10
2018-08-19T07:00:27.291Z,6.63
2018-08-19T07:02:57.727Z,6.40
2018-08-19T07:05:26.648Z,7.07
2018-08-19T07:07:55.631Z,7.67
2018-08-19T07:10:29.865Z,7.33
2018-08-19T07:13:05.736Z,7.07
2018-08-19T07:15:35.231Z,7.20
2018-08-19T07:18:04.235Z,6.50
2018-08-19T07:20:33.224Z,6.07
2018-08-19T07:23:02.052Z,6.00
2018-08-19T07:25:30.980Z,6.30
2018-08-19T07:27:59.936Z,5.57
2018-08-19T07:30:28.807Z,5.83
2018-08-19T07:32:57.656Z,5.97
2018-08-19T07:35:26.477Z,5.47
2018-08-19T07:37:55.288Z,5.77
2018-08-19T07:40:24.200Z,5.90
2018-08-19T07:42:53.043Z,5.30
2018-08-19T07:45:21.972Z,6.77
2018-08-19T07:47:50.947Z,6.43
2018-08-19T07:50:20.028Z,5.93
2018-08-19T07:52:48.991Z,5.30
2018-08-19T07:55:17.811Z,5.77
2018-08-19T07:57:46.713Z,5.30
2018-08-19T08:00:15.716Z,5.63
2018-08-19T08:02:44.696Z,5.50
2018-08-19T08:05:13.560Z,5.40
2018-08-19T08:07:46.265Z,5.40
2018-08-19T08:10:15.309Z,5.80
2018-08-19T08:12:44.624Z,5.73
2018-08-19T08:15:13.478Z,7.17
2018-08-19T08:17:42.481Z,6.77
2018-08-19T08:20:11.432Z,5.57
2018-08-19T08:22:40.315Z,5.80
2018-08-19T08:25:11.786Z,5.93
2018-08-19T08:27:40.719Z,6.07
2018-08-19T08:30:12.599Z,6.57
2018-08-19T08:32:44.916Z,6.17
2018-08-19T08:35:14.030Z,6.13
2018-08-19T08:37:43.156Z,6.57
2018-08-19T08:40:12.644Z,8.00
2018-08-19T08:42:45.290Z,5.70
2018-08-19T08:45:15.458Z,7.13
2018-08-19T08:47:44.450Z,7.50
2018-08-19T08:50:13.731Z,5.83
2018-08-19T08:52:44.160Z,5.40
2018-08-19T08:55:13.761Z,5.87
2018-08-19T08:57:42.713Z,6.63
2018-08-19T09:00:13.105Z,5.53
2018-08-19T09:02:41.968Z,6.17
2018-08-19T09:05:11.965Z,6.30
2018-08-19T09:07:41.325Z,6.20
2018-08-19T09:10:13.048Z,6.23
2018-08-19T09:12:46.019Z,6.00
2018-08-19T09:15:15.009Z,6.00
2018-08-19T09:17:44.032Z,5.90
2018-08-19T09:20:13.168Z,5.50
2018-08-19T09:22:42.612Z,6.67
2018-08-19T09:25:11.783Z,6.10
2018-08-19T09:27:41.524Z,6.10
2018-08-19T09:30:12.481Z,5.73
2018-08-19T09:32:59.022Z,6.17
2018-08-19T09:35:29.839Z,6.07
2018-08-19T09:38:03.752Z,6.23
2018-08-19T09:40:33.511Z,5.77
2018-08-19T09:43:02.472Z,6.77
2018-08-19T09:45:31.740Z,6.07
2018-08-19T09:48:01.179Z,6.23
2018-08-19T09:50:30.072Z,5.77
2018-08-19T09:52:58.984Z,5.90
2018-08-19T09:55:45.284Z,6.43
2018-08-19T09:58:16.192Z,7.30
2018-08-19T10:00:50.123Z,5.90
2018-08-19T10:03:19.210Z,6.97
2018-08-19T10:05:48.109Z,6.60
2018-08-19T10:08:17.124Z,6.50
2018-08-19T10:10:45.932Z,6.13
2018-08-19T10:13:16.832Z,6.47
2018-08-19T10:15:45.780Z,7.03
2018-08-19T10:18:14.723Z,7.60
2018-08-19T10:20:43.694Z,7.20
2018-08-19T10:23:12.657Z,6.07
2018-08-19T10:25:41.585Z,6.60
2018-08-19T10:28:10.457Z,6.20
2018-08-19T10:30:45.062Z,7.17
2018-08-19T10:33:14.125Z,7.00
2018-08-19T10:35:43.043Z,6.67
2018-08-19T10:38:12.061Z,7.43
2018-08-19T10:40:41.079Z,5.80
2018-08-19T10:43:10.923Z,6.60
2018-08-19T10:45:42.304Z,5.87
2018-08-19T10:48:13.888Z,6.73
2018-08-19T10:50:42.728Z,6.30
2018-08-19T10:53:26.456Z,6.97
2018-08-19T10:55:59.298Z,6.60
2018-08-19T10:58:28.201Z,6.23
2018-08-19T11:00:57.137Z,6.80
2018-08-19T11:03:26.111Z,6.53
2018-08-19T11:05:56.292Z,7.30
2018-08-19T11:08:25.214Z,7.13
2018-08-19T11:10:54.169Z,6.43
2018-08-19T11:13:25.127Z,7.10
2018-08-19T11:15:58.049Z,7.20
2018-08-19T11:18:29.252Z,7.13
2018-08-19T11:21:02.868Z,7.53
2018-08-19T11:23:31.823Z,6.87
2018-08-19T11:26:00.680Z,8.00
2018-08-19T11:28:36.814Z,7.33
2018-08-19T11:31:05.977Z,6.83
2018-08-19T11:33:43.148Z,6.93
2018-08-19T11:36:12.609Z,7.63
2018-08-19T11:38:42.124Z,7.23
2018-08-19T11:41:11.943Z,7.37
2018-08-19T11:43:43.344Z,7.37
2018-08-19T11:46:12.409Z,7.10
2018-08-19T11:48:41.863Z,7.80
2018-08-19T11:51:11.175Z,7.63
2018-08-19T11:53:40.351Z,7.80
2018-08-19T11:56:09.261Z,7.33
2018-08-19T11:58:39.180Z,8.50
2018-08-19T12:01:09.613Z,8.00
2018-08-19T12:04:02.480Z,7.97
2018-08-19T12:06:32.573Z,7.07
2018-08-19T12:09:02.787Z,7.77
2018-08-19T12:11:33.324Z,7.47
2018-08-19T12:14:08.887Z,7.40
2018-08-19T12:16:43.874Z,8.53
2018-08-19T12:19:18.200Z,7.90
2018-08-19T12:21:50.967Z,8.27
2018-08-19T12:24:22.837Z,7.97
2018-08-19T12:26:55.191Z,7.90
2018-08-19T12:29:25.615Z,8.33
2018-08-19T12:32:13.488Z,7.87
2018-08-19T12:34:46.244Z,7.77
2018-08-19T12:37:16.097Z,7.17
2018-08-19T12:39:45.096Z,7.77
2018-08-19T12:42:14.053Z,7.97
2018-08-19T12:44:43.180Z,7.77
2018-08-19T12:47:17.351Z,7.70
2018-08-19T12:49:47.843Z,7.43
2018-08-19T12:52:21.431Z,8.17
2018-08-19T12:54:54.072Z,8.10
2018-08-19T12:57:23.335Z,9.70
2018-08-19T12:59:52.305Z,8.27
2018-08-19T13:02:25.925Z,9.00
2018-08-19T13:04:54.848Z,8.87
2018-08-19T13:07:23.752Z,8.67
2018-08-19T13:09:52.665Z,9.10
2018-08-19T13:12:21.635Z,8.97
2018-08-19T13:14:50.644Z,9.27
2018-08-19T13:17:19.592Z,9.40
2018-08-19T13:19:59.432Z,8.87
2018-08-19T13:22:28.860Z,9.07
2018-08-19T13:24:57.782Z,9.00
2018-08-19T13:27:26.740Z,9.47
2018-08-19T13:29:55.724Z,9.20
2018-08-19T13:32:24.712Z,8.70
2018-08-19T13:34:53.728Z,9.00
2018-08-19T13:37:22.702Z,8.77
2018-08-19T13:39:51.587Z,9.03
2018-08-19T13:42:20.515Z,9.60
2018-08-19T13:44:49.339Z,9.27
2018-08-19T13:47:18.260Z,9.60
2018-08-19T13:49:47.273Z,10.87
2018-08-19T13:52:16.145Z,10.03
2018-08-19T13:54:55.675Z,9.23
2018-08-19T13:57:24.623Z,9.57
2018-08-19T13:59:53.483Z,9.67
2018-08-19T14:02:22.339Z,10.00
2018-08-19T14:04:51.264Z,9.87
2018-08-19T14:07:20.196Z,9.50
2018-08-19T14:09:49.024Z,10.10
2018-08-19T14:12:17.892Z,10.40
2018-08-19T14:14:46.852Z,9.40
2018-08-19T14:17:15.798Z,11.13
2018-08-19T14:19:44.725Z,10.33
2018-08-19T14:22:13.753Z,11.10
2018-08-19T14:24:42.644Z,10.73
2018-08-19T14:27:11.444Z,12.17
2018-08-19T14:29:40.315Z,11.03
2018-08-19T14:32:21.180Z,11.40
2018-08-19T14:34:50.042Z,11.30
2018-08-19T14:37:19.016Z,11.50
2018-08-19T14:39:47.978Z,11.57
2018-08-19T14:42:16.848Z,11.27
2018-08-19T14:44:45.745Z,11.80
2018-08-19T14:47:14.594Z,11.73
2018-08-19T14:49:43.672Z,11.73
2018-08-19T14:52:12.639Z,11.43
2018-08-19T14:54:41.557Z,10.80
2018-08-19T14:57:10.517Z,11.27
2018-08-19T14:59:39.327Z,11.67
2018-08-19T15:02:08.633Z,11.37
2018-08-19T15:04:37.527Z,12.43
2018-08-19T15:07:06.456Z,11.27
2018-08-19T15:09:35.674Z,11.30
2018-08-19T15:12:13.702Z,11.33
2018-08-19T15:14:42.788Z,12.70
2018-08-19T15:17:12.180Z,11.93
2018-08-19T15:19:49.353Z,12.63
2018-08-19T15:22:18.270Z,12.63
2018-08-19T15:24:47.204Z,11.93
2018-08-19T15:27:16.071Z,12.63
2018-08-19T15:29:46.942Z,11.53
2018-08-19T15:32:16.011Z,12.17
2018-08-19T15:34:44.844Z,11.83
2018-08-19T15:37:13.648Z,12.30
2018-08-19T15:39:42.985Z,12.27
2018-08-19T15:42:12.337Z,13.70
2018-08-19T15:44:41.204Z,12.33
2018-08-19T15:47:10.285Z,11.27
2018-08-19T15:49:39.278Z,11.30
2018-08-19T15:52:08.228Z,11.20
2018-08-19T15:54:37.169Z,11.33
2018-08-19T15:57:06.345Z,11.10
2018-08-19T15:59:36.676Z,15.40
2018-08-19T16:02:05.769Z,11.23
2018-08-19T16:04:34.696Z,11.73
2018-08-19T16:07:04.124Z,11.30
2018-08-19T16:09:32.977Z,11.00
2018-08-19T16:12:01.960Z,11.43
2018-08-19T16:14:31.901Z,11.10
2018-08-19T16:17:02.823Z,11.53
2018-08-19T16:19:31.723Z,12.17
2018-08-19T16:22:01.057Z,11.83
2018-08-19T16:24:30.198Z,13.47
2018-08-19T16:26:59.076Z,12.33
2018-08-19T16:29:27.965Z,11.53
2018-08-19T16:31:56.937Z,12.00
2018-08-19T16:34:25.747Z,11.80
2018-08-19T16:36:54.661Z,11.30
2018-08-19T16:39:23.538Z,10.93
2018-08-19T16:41:52.439Z,11.10
2018-08-19T16:44:21.330Z,9.43
2018-08-19T16:46:50.241Z,10.43
2018-08-19T16:49:19.085Z,9.77
2018-08-19T16:51:47.988Z,9.17
2018-08-19T16:54:16.885Z,9.80
2018-08-19T16:56:45.865Z,9.47
2018-08-19T16:59:14.676Z,8.93
2018-08-19T17:01:43.644Z,8.87
2018-08-19T17:04:12.568Z,8.63
2018-08-19T17:06:41.447Z,8.00
2018-08-19T17:09:10.403Z,7.60
2018-08-19T17:11:39.215Z,7.43
2018-08-19T17:14:08.085Z,7.47
2018-08-19T17:16:36.917Z,7.13
2018-08-19T17:19:05.779Z,7.40
2018-08-19T17:21:34.767Z,6.77
2018-08-19T17:24:03.549Z,7.67
2018-08-19T17:26:32.567Z,7.07
2018-08-19T17:29:06.760Z,7.90
2018-08-19T17:31:35.689Z,7.53
2018-08-19T17:34:14.751Z,7.83
2018-08-19T17:36:43.627Z,7.40
2018-08-19T17:39:16.156Z,7.53
2018-08-19T17:41:45.050Z,7.63
2018-08-19T17:44:14.091Z,7.30
2018-08-19T17:46:42.936Z,7.33
2018-08-19T17:49:17.206Z,8.00
2018-08-19T17:51:46.146Z,7.43
2018-08-19T17:54:20.033Z,6.97
2018-08-19T17:56:48.971Z,7.93
2018-08-19T17:59:17.912Z,9.63
2018-08-19T18:01:46.760Z,8.00
2018-08-19T18:04:15.692Z,8.40
2018-08-19T18:06:44.512Z,8.03
2018-08-19T18:09:15.001Z,7.73
2018-08-19T18:11:49.351Z,8.50
2018-08-19T18:14:18.317Z,8.50
2018-08-19T18:16:47.413Z,8.17
2018-08-19T18:19:16.337Z,8.30
2018-08-19T18:21:45.271Z,14.43
2018-08-19T18:24:14.239Z,7.83
2018-08-19T18:26:43.223Z,7.53
2018-08-19T18:29:12.166Z,8.13
2018-08-19T18:31:41.159Z,9.00
2018-08-19T18:34:10.063Z,8.47
2018-08-19T18:36:38.948Z,9.00
2018-08-19T18:39:10.197Z,8.47
2018-08-19T18:41:42.509Z,8.30
2018-08-19T18:44:12.255Z,8.67
2018-08-19T18:46:41.119Z,9.27
2018-08-19T18:49:12.825Z,8.87
2018-08-19T18:51:44.349Z,8.90
2018-08-19T18:54:31.596Z,9.20
2018-08-19T18:57:05.843Z,9.03
2018-08-19T18:59:34.830Z,8.63
2018-08-19T19:02:04.532Z,9.00
2018-08-19T19:04:33.484Z,9.10
2018-08-19T19:07:02.467Z,9.70
2018-08-19T19:09:42.149Z,8.67
2018-08-19T19:12:11.212Z,9.30
2018-08-19T19:14:40.226Z,9.30
2018-08-19T19:17:09.094Z,8.70
2018-08-19T19:19:52.204Z,9.27
2018-08-19T19:22:21.151Z,9.17
2018-08-19T19:24:52.775Z,9.23
2018-08-19T19:27:21.691Z,9.43
2018-08-19T19:29:55.745Z,9.47
2018-08-19T19:32:25.174Z,9.13
2018-08-19T19:34:54.039Z,9.20
2018-08-19T19:37:23.240Z,8.93
2018-08-19T19:39:57.266Z,9.33
2018-08-19T19:42:26.349Z,9.57
2018-08-19T19:44:55.299Z,9.43
2018-08-19T19:47:24.164Z,10.43
2018-08-19T19:49:57.232Z,9.00
2018-08-19T19:52:26.144Z,9.20
2018-08-19T19:54:55.168Z,9.40
2018-08-19T19:57:24.236Z,9.57
2018-08-19T19:59:53.152Z,9.40
2018-08-19T20:02:29.138Z,10.00
2018-08-19T20:04:58.044Z,9.40
2018-08-19T20:07:27.345Z,9.30
2018-08-19T20:09:56.464Z,9.80
2018-08-19T20:12:28.829Z,10.10
2018-08-19T20:15:00.154Z,9.93
2018-08-19T20:17:29.164Z,9.80
2018-08-19T20:19:57.998Z,9.07
2018-08-19T20:22:27.008Z,9.60
2018-08-19T20:24:55.951Z,8.70
2018-08-19T20:27:24.806Z,9.33
2018-08-19T20:29:54.913Z,9.17
2018-08-19T20:32:23.935Z,9.13
2018-08-19T20:34:52.790Z,10.40
2018-08-19T20:37:23.874Z,9.10
2018-08-19T20:39:53.123Z,9.27
2018-08-19T20:42:22.029Z,9.07
2018-08-19T20:44:50.907Z,9.20
2018-08-19T20:47:19.716Z,9.57
2018-08-19T20:49:50.181Z,9.60
2018-08-19T20:52:21.665Z,9.07
2018-08-19T20:54:50.724Z,9.07
2018-08-19T20:57:19.582Z,9.70
2018-08-19T20:59:48.384Z,10.07
2018-08-19T21:02:17.235Z,9.90
2018-08-19T21:04:46.157Z,8.80
2018-08-19T21:07:15.019Z,9.70
2018-08-19T21:09:44.129Z,9.13
2018-08-19T21:12:12.963Z,9.77
2018-08-19T21:14:41.941Z,9.53
2018-08-19T21:17:10.897Z,9.47
2018-08-19T21:19:40.257Z,9.10
2018-08-19T21:22:09.236Z,9.87
2018-08-19T21:24:38.372Z,9.77
2018-08-19T21:27:07.175Z,9.27
2018-08-19T21:29:36.023Z,9.80
2018-08-19T21:32:04.972Z,9.33
2018-08-19T21:34:33.817Z,9.43
2018-08-19T21:37:02.813Z,9.53
2018-08-19T21:39:31.775Z,9.53
2018-08-19T21:42:00.611Z,10.40
2018-08-19T21:44:29.520Z,10.80
2018-08-19T21:46:58.485Z,9.27
2018-08-19T21:49:27.339Z,9.63
2018-08-19T21:51:56.167Z,10.43
2018-08-19T21:54:25.121Z,9.87
2018-08-19T21:56:54.064Z,9.73
2018-08-19T21:59:24.760Z,10.43
2018-08-19T22:02:00.614Z,10.37
2018-08-19T22:04:30.054Z,10.50
2018-08-19T22:06:59.036Z,10.93
2018-08-19T22:09:34.314Z,10.50
2018-08-19T22:12:03.739Z,10.47
2018-08-19T22:14:33.082Z,10.57
2018-08-19T22:17:07.034Z,10.50
2018-08-19T22:19:35.985Z,11.57
2018-08-19T22:22:04.911Z,10.33
2018-08-19T22:24:34.083Z,9.93
2018-08-19T22:27:08.265Z,10.00
2018-08-19T22:29:37.305Z,10.07
2018-08-19T22:32:06.234Z,10.87
2018-08-19T22:34:35.203Z,12.63
2018-08-19T22:37:04.316Z,9.60
2018-08-19T22:39:33.193Z,10.53
2018-08-19T22:42:02.000Z,10.00
2018-08-19T22:44:30.938Z,9.60
2018-08-19T22:46:59.858Z,10.40
2018-08-19T22:49:29.392Z,10.37
2018-08-19T22:52:13.484Z,10.43
2018-08-19T22:54:42.379Z,10.53
2018-08-19T22:57:11.300Z,10.37
2018-08-19T22:59:40.274Z,10.40
2018-08-19T23:02:09.190Z,10.23
2018-08-19T23:04:38.196Z,10.33
2018-08-19T23:07:07.228Z,9.97
2018-08-19T23:09:36.210Z,10.10
2018-08-19T23:12:05.156Z,11.10
2018-08-19T23:14:44.810Z,10.50
2018-08-19T23:17:13.795Z,10.37
2018-08-19T23:19:42.731Z,11.00
2018-08-19T23:22:11.574Z,10.93
2018-08-19T23:24:40.541Z,11.20
2018-08-19T23:27:09.409Z,11.33
2018-08-19T23:29:38.283Z,10.63
2018-08-19T23:32:07.137Z,10.87
2018-08-19T23:34:35.980Z,11.10
2018-08-19T23:37:04.953Z,11.50
2018-08-19T23:39:33.822Z,11.50
2018-08-19T23:42:02.924Z,11.27
2018-08-19T23:44:32.027Z,10.97
2018-08-19T23:47:00.897Z,12.30
2018-08-19T23:49:29.860Z,11.90
2018-08-19T23:51:58.921Z,12.80
2018-08-19T23:54:27.724Z,11.37
2018-08-19T23:56:56.546Z,11.90
2018-08-19T23:59:31.558Z,11.90
